Cedar Rapids, IA (52401)

1:51 AM CDT on September 01, 2015 (GMT -0500)
SW Cedar Rapids | | Change Station
CLOSE
Current Station
Personal Weather Station
Location: Cedar Rapids, IA
Elevation: 745 ft
Nearby Weather Stations

Elev 745 ft 41.97 °N, 91.68 °W | Updated 8 seconds ago

Clear
Clear
75.4 °F
Feels Like 76 °F
N
0.0
Wind Variable Wind from WSW
Gusts 0.4 mph

Today
High -- | Low -- °F
--% Chance of Precip.
Yesterday
High -- | Low -- °F
Precip. -- in
6:32 AM 7:40 PM
Waning Gibbous, 91% visible
Pressure 29.97 in
Visibility 5.0 miles
Clouds Clear
Heat Index 76 °F
Dew Point 68 °F
Humidity 79%
Rainfall 0.00 in
Snow Depth Not available.
UV 0 out of 12
Pollen 10.50 out of 12
Air Quality Not available.
Flu Activity Not available.
METAR KCID 010552Z AUTO 17005KT 5SM BR CLR 22/22 A2999 RMK AO2 SLP147 T02220222 10272 20217 402940150 53006
Pressure 29.97 in
Visibility 5.0 miles
Clouds Clear
Heat Index 76 °F
Dew Point 68 °F
Humidity 79%
Rainfall 0.00 in
Snow Depth Not available.
UV 0 out of 12
Pollen 10.50 out of 12
Air Quality Not available.
Flu Activity Not available.
METAR KCID 010552Z AUTO 17005KT 5SM BR CLR 22/22 A2999 RMK AO2 SLP147 T02220222 10272 20217 402940150 53006

10-Day Weather Forecast

×

Almanac

Astronomy

Sep. 01, 2015 Rise Set
Actual Time
Civil Twilight
Nautical Twilight
Astronomical Twilight
Moon
Length of Visible Light
Length of Day
Tomorrow will be .
, % of the Moon is Illuminated

Today's Extremes

State Highs State Lows

Community

WunderPhotos

Upload Photos

1,851,488 photos uploaded!

WunderBlogs® & News

Nearby

Air Quality

  Air Quality AQ Index Pollutant
Not available.

Snow Depth

Station Depth Elevation

Earthquake Activity

City Distance Mag. Time & Date
Minimum magnitude displayed is 2.5.

Coastal Water Temperatures

Place Temperature

Stations

Nearby Weather Stations

Station Location Temp. Windchill Dew Point Humidity Wind Precip. Elev Updated Type